Time;durP1;ratioP1;P1;durP2;ratioP2;P2;SDS_P1;SDS_P2;PMS_P1;PMS_P2;Temp;Humidity;BMP_temperature;BMP_pressure;BME280_temperature;BME280_humidity;BME280_pressure;Samples;Min_cycle;Max_cycle;Signal;HPM_P1;HPM_P2
2023/06/25 00:02:00;;;;;;;4.32;3.42;;;30.90;53.40;;;;;;10466281;28;20079;-32
2023/06/25 00:07:03;;;;;;;4.97;3.95;;;30.70;53.50;;;;;;10477253;28;20140;-35
2023/06/25 00:12:07;;;;;;;4.60;3.28;;;30.80;53.30;;;;;;10482869;28;20054;-32
2023/06/25 00:17:09;;;;;;;4.18;3.78;;;30.80;53.40;;;;;;10482919;28;20151;-32
2023/06/25 00:22:11;;;;;;;4.78;3.60;;;30.70;53.40;;;;;;10485934;28;20929;-30
2023/06/25 00:27:15;;;;;;;5.57;3.95;;;30.70;53.40;;;;;;10493522;28;20425;-32
2023/06/25 00:32:16;;;;;;;4.32;3.92;;;30.60;53.50;;;;;;10486964;28;20084;-35
2023/06/25 00:37:18;;;;;;;5.60;3.92;;;30.60;53.40;;;;;;10489741;28;20444;-32
2023/06/25 00:42:22;;;;;;;6.65;3.97;;;30.40;53.60;;;;;;10490790;28;20112;-32
2023/06/25 00:47:23;;;;;;;4.45;3.97;;;30.50;53.50;;;;;;10494613;28;20133;-32
2023/06/25 00:52:26;;;;;;;6.07;4.07;;;30.40;53.40;;;;;;10497559;28;20143;-34
2023/06/25 00:57:29;;;;;;;5.80;3.72;;;30.40;53.60;;;;;;10502572;28;20496;-31
2023/06/25 01:02:43;;;;;;;5.00;3.60;;;30.30;53.50;;;;;;10487901;28;20117;-35
2023/06/25 01:07:46;;;;;;;5.53;4.10;;;30.30;53.60;;;;;;10484059;28;20072;-31
2023/06/25 01:12:49;;;;;;;5.63;4.03;;;30.20;53.80;;;;;;10481988;28;20497;-34
2023/06/25 01:17:53;;;;;;;4.95;3.67;;;30.20;53.70;;;;;;10480447;28;20159;-31
2023/06/25 01:22:58;;;;;;;4.05;3.65;;;30.00;54.00;;;;;;10486719;28;20059;-32
2023/06/25 01:28:00;;;;;;;4.82;3.55;;;30.20;53.80;;;;;;10486617;28;20076;-31
2023/06/25 01:33:01;;;;;;;3.72;3.33;;;30.10;53.80;;;;;;10482293;28;20118;-36
2023/06/25 01:38:05;;;;;;;4.85;3.85;;;30.00;53.90;;;;;;10486866;28;20185;-37
2023/06/25 01:43:07;;;;;;;5.13;3.78;;;30.00;53.90;;;;;;10483372;28;20115;-34
2023/06/25 01:48:09;;;;;;;5.47;3.50;;;30.00;53.90;;;;;;10485236;28;20068;-37
2023/06/25 01:53:12;;;;;;;8.63;3.85;;;29.90;54.10;;;;;;10483966;28;20072;-37
2023/06/25 01:58:14;;;;;;;5.93;3.40;;;29.90;54.10;;;;;;10489449;28;20461;-38
2023/06/25 02:03:16;;;;;;;4.63;3.78;;;29.90;54.20;;;;;;10487423;28;20163;-38
2023/06/25 02:08:19;;;;;;;3.90;3.38;;;29.90;54.20;;;;;;10487883;28;20060;-37
2023/06/25 02:13:21;;;;;;;4.80;3.30;;;29.70;54.40;;;;;;10486382;28;20052;-38
2023/06/25 02:18:23;;;;;;;4.60;3.33;;;29.80;54.40;;;;;;10478165;28;20068;-37
2023/06/25 02:23:26;;;;;;;3.60;3.15;;;29.70;54.50;;;;;;10482848;28;20131;-33
2023/06/25 02:28:28;;;;;;;3.67;2.90;;;29.70;54.50;;;;;;10488640;28;20710;-35
2023/06/25 02:33:30;;;;;;;4.20;3.00;;;29.60;54.70;;;;;;10486030;28;20048;-33
2023/06/25 02:38:33;;;;;;;3.75;2.97;;;29.70;54.60;;;;;;10483420;28;20428;-32
2023/06/25 02:43:35;;;;;;;4.78;3.42;;;29.60;54.70;;;;;;10500658;28;20086;-31
2023/06/25 02:48:37;;;;;;;4.03;2.80;;;29.60;54.80;;;;;;10486744;28;20064;-32
2023/06/25 02:53:41;;;;;;;3.92;3.15;;;29.60;54.80;;;;;;10481707;28;20436;-31
2023/06/25 03:15:30;;;;;;;4.65;3.03;;;29.20;55.20;;;;;;10508228;27;20599;-31
2023/06/25 03:20:32;;;;;;;5.05;3.05;;;29.20;55.70;;;;;;10518276;28;20394;-32
2023/06/25 03:25:34;;;;;;;3.45;2.47;;;29.30;55.60;;;;;;10519516;28;20052;-33
2023/06/25 03:30:37;;;;;;;3.92;3.05;;;29.40;55.50;;;;;;10523424;28;20473;-31
2023/06/25 03:35:38;;;;;;;3.10;2.42;;;29.40;55.50;;;;;;10527227;28;20182;-32
2023/06/25 03:40:41;;;;;;;4.78;2.47;;;29.20;55.90;;;;;;10521582;28;20065;-31
2023/06/25 03:45:44;;;;;;;3.60;2.42;;;29.20;55.80;;;;;;10525510;28;20076;-33
2023/06/25 03:50:46;;;;;;;3.35;2.53;;;29.20;55.80;;;;;;10524141;28;20048;-31
2023/06/25 03:55:48;;;;;;;3.70;2.75;;;29.30;55.80;;;;;;10516780;28;20072;-35
2023/06/25 04:00:51;;;;;;;4.20;2.60;;;29.20;55.70;;;;;;10521398;28;20513;-34
2023/06/25 04:05:53;;;;;;;3.05;2.53;;;29.10;56.00;;;;;;10521367;28;20155;-32
2023/06/25 04:10:55;;;;;;;3.00;2.53;;;29.20;56.00;;;;;;10516397;28;20137;-36
2023/06/25 04:15:58;;;;;;;2.78;2.13;;;29.20;56.00;;;;;;10526558;28;20048;-36
2023/06/25 04:21:00;;;;;;;3.70;2.63;;;29.10;56.40;;;;;;10505828;28;20071;-34
2023/06/25 04:26:02;;;;;;;3.63;2.72;;;29.20;56.20;;;;;;10494081;28;20075;-31
2023/06/25 04:31:05;;;;;;;3.65;2.72;;;29.10;56.30;;;;;;10492131;28;20505;-31
2023/06/25 04:36:07;;;;;;;4.65;2.72;;;29.10;56.20;;;;;;10495227;28;20603;-32
2023/06/25 04:41:08;;;;;;;4.05;2.42;;;29.10;56.20;;;;;;10475505;28;20131;-31
2023/06/25 04:46:12;;;;;;;4.72;3.03;;;29.10;56.20;;;;;;10497097;28;20044;-31
2023/06/25 04:51:14;;;;;;;2.72;2.53;;;29.10;56.40;;;;;;10504752;28;20048;-31
2023/06/25 04:56:16;;;;;;;3.33;2.72;;;29.10;56.40;;;;;;10496329;28;20700;-31
2023/06/25 05:01:19;;;;;;;4.10;2.70;;;29.10;56.40;;;;;;10487860;28;20094;-31
2023/06/25 05:06:21;;;;;;;4.05;2.97;;;29.10;56.40;;;;;;10489844;28;20068;-32
2023/06/25 05:11:23;;;;;;;3.55;2.85;;;29.10;56.40;;;;;;10480363;28;20102;-33
2023/06/25 05:16:27;;;;;;;3.08;2.67;;;29.10;56.40;;;;;;10477448;28;20459;-32
2023/06/25 05:21:28;;;;;;;4.13;2.80;;;29.00;56.60;;;;;;10472690;28;20037;-36
2023/06/25 05:26:31;;;;;;;3.20;2.90;;;29.00;56.50;;;;;;10474709;28;20033;-32
2023/06/25 05:31:35;;;;;;;3.50;2.92;;;29.00;56.70;;;;;;10485724;28;20055;-32
2023/06/25 05:36:37;;;;;;;3.00;2.70;;;29.10;56.60;;;;;;10485401;28;20096;-33
2023/06/25 05:41:40;;;;;;;4.40;2.95;;;29.00;56.50;;;;;;10466820;28;20045;-31
2023/06/25 05:46:43;;;;;;;4.70;2.78;;;29.10;56.40;;;;;;10465463;28;20056;-32
2023/06/25 05:51:45;;;;;;;4.28;3.17;;;29.10;56.50;;;;;;10469234;28;20109;-31
2023/06/25 05:56:47;;;;;;;3.88;2.92;;;29.10;56.50;;;;;;10480129;28;20131;-33
2023/06/25 06:01:50;;;;;;;4.50;3.42;;;29.10;56.50;;;;;;10475017;28;20135;-32
2023/06/25 06:06:52;;;;;;;3.58;3.20;;;29.10;56.70;;;;;;10477027;28;20405;-33
2023/06/25 06:11:54;;;;;;;7.75;2.65;;;29.10;56.50;;;;;;10476154;28;20113;-32
2023/06/25 06:16:57;;;;;;;4.22;3.38;;;29.00;56.60;;;;;;10475315;28;20049;-30
2023/06/25 06:21:59;;;;;;;4.47;3.13;;;29.00;56.80;;;;;;10468386;28;20136;-30
2023/06/25 06:27:01;;;;;;;4.38;3.10;;;29.00;56.60;;;;;;10470336;28;20036;-34
2023/06/25 06:32:05;;;;;;;3.38;3.05;;;29.10;56.70;;;;;;10472337;28;20154;-32
2023/06/25 06:37:07;;;;;;;5.07;2.95;;;29.10;56.60;;;;;;10479147;28;21067;-31
2023/06/25 06:42:09;;;;;;;3.35;2.80;;;29.10;56.40;;;;;;10481420;28;20044;-31
2023/06/25 06:47:14;;;;;;;3.63;2.90;;;29.00;56.50;;;;;;10472646;28;20036;-30
2023/06/25 06:52:15;;;;;;;4.45;3.00;;;29.00;56.60;;;;;;10463257;28;20047;-33
2023/06/25 06:57:17;;;;;;;5.28;2.88;;;29.00;56.40;;;;;;10468439;28;20087;-30
2023/06/25 07:02:21;;;;;;;5.28;2.58;;;29.00;56.50;;;;;;10458379;28;20102;-31
2023/06/25 07:07:23;;;;;;;4.30;2.47;;;29.00;56.50;;;;;;10457743;28;20080;-31
2023/06/25 07:12:24;;;;;;;3.30;2.60;;;29.10;56.20;;;;;;10462668;28;20387;-32
2023/06/25 07:17:27;;;;;;;4.13;2.53;;;29.10;56.20;;;;;;10458385;28;20511;-29
2023/06/25 07:22:29;;;;;;;3.25;2.58;;;29.10;56.10;;;;;;10465322;28;20140;-31
2023/06/25 07:27:31;;;;;;;7.07;3.83;;;29.10;56.10;;;;;;10470210;28;20083;-29
2023/06/25 07:32:34;;;;;;;4.47;2.58;;;29.00;55.30;;;;;;10466181;28;20537;-33
2023/06/25 07:37:36;;;;;;;2.63;2.25;;;29.10;55.90;;;;;;10458124;28;20412;-31
2023/06/25 07:42:38;;;;;;;3.38;2.20;;;29.20;55.70;;;;;;10453853;28;20061;-29
2023/06/25 07:47:42;;;;;;;5.25;2.47;;;29.20;55.60;;;;;;10460828;28;20049;-34
2023/06/25 07:52:43;;;;;;;4.57;2.38;;;28.90;54.70;;;;;;10466084;28;20052;-33
2023/06/25 07:57:45;;;;;;;2.47;1.92;;;28.60;55.50;;;;;;10456668;28;20076;-32
2023/06/25 08:02:49;;;;;;;4.00;2.10;;;29.10;55.80;;;;;;10470022;28;20457;-33
2023/06/25 08:07:51;;;;;;;3.67;2.33;;;29.40;55.40;;;;;;10468887;28;20072;-31
2023/06/25 08:12:55;;;;;;;3.17;2.40;;;29.50;55.00;;;;;;10465975;28;20143;-32
2023/06/25 08:17:58;;;;;;;3.20;2.10;;;29.30;54.00;;;;;;10479691;28;20163;-37
2023/06/25 08:23:00;;;;;;;3.22;1.98;;;29.20;55.10;;;;;;10484027;28;20072;-37
2023/06/25 08:28:02;;;;;;;4.30;2.67;;;29.50;54.80;;;;;;10481067;28;20048;-35
2023/06/25 08:33:05;;;;;;;2.00;1.63;;;29.30;52.80;;;;;;10485085;28;20107;-32
2023/06/25 08:38:07;;;;;;;2.75;2.00;;;29.00;55.30;;;;;;10483374;28;20056;-33
2023/06/25 08:43:10;;;;;;;3.13;2.05;;;29.30;54.50;;;;;;10489638;28;20139;-35
2023/06/25 08:48:14;;;;;;;2.50;1.65;;;29.50;54.40;;;;;;10486641;28;20072;-32
2023/06/25 08:53:16;;;;;;;1.73;1.52;;;29.40;53.30;;;;;;10487624;28;20040;-32
2023/06/25 08:58:20;;;;;;;2.97;2.08;;;29.40;54.40;;;;;;10487908;28;20128;-33
2023/06/25 09:03:23;;;;;;;3.78;1.70;;;29.50;53.80;;;;;;10490477;28;20450;-32
2023/06/25 09:08:27;;;;;;;1.98;1.77;;;30.00;52.90;;;;;;10474701;28;20068;-35
2023/06/25 09:13:29;;;;;;;2.03;1.67;;;28.40;55.90;;;;;;10487450;28;20143;-31
2023/06/25 09:18:33;;;;;;;2.95;2.08;;;28.30;55.90;;;;;;10488146;28;20080;-34
2023/06/25 09:23:37;;;;;;;2.85;1.73;;;29.30;51.20;;;;;;10479342;28;20052;-31
2023/06/25 09:28:48;;;;;;;3.97;2.97;;;29.00;55.20;;;;;;10486317;28;20048;-29
2023/06/25 09:33:52;;;;;;;7.95;3.47;;;29.10;52.40;;;;;;10480300;28;20068;-32
2023/06/25 09:38:54;;;;;;;4.78;3.10;;;28.40;54.20;;;;;;10471214;28;20048;-34
2023/06/25 09:43:57;;;;;;;2.63;1.90;;;28.90;50.00;;;;;;10489636;28;20128;-32
2023/06/25 09:49:02;;;;;;;5.25;3.63;;;29.00;55.40;;;;;;10490610;28;20072;-34
2023/06/25 09:54:08;;;;;;;2.35;1.70;;;29.20;46.20;;;;;;10481571;28;20079;-32
2023/06/25 09:59:10;;;;;;;3.63;2.42;;;29.10;51.90;;;;;;10490546;28;20032;-35
2023/06/25 10:04:14;;;;;;;5.43;2.72;;;28.70;49.50;;;;;;10490644;28;20040;-34
2023/06/25 10:09:16;;;;;;;3.78;2.63;;;29.00;49.20;;;;;;10503861;28;20114;-33
2023/06/25 10:14:17;;;;;;;3.53;3.20;;;29.30;52.20;;;;;;10484589;28;20512;-35
2023/06/25 10:19:22;;;;;;;4.05;2.63;;;29.80;47.80;;;;;;10494605;28;20557;-35
2023/06/25 10:24:24;;;;;;;2.85;1.95;;;29.20;49.10;;;;;;10488180;28;20165;-32
2023/06/25 10:29:26;;;;;;;7.55;2.70;;;28.80;51.70;;;;;;10484295;28;20064;-32
2023/06/25 10:34:29;;;;;;;4.82;2.63;;;29.20;48.50;;;;;;10485871;28;20301;-32
2023/06/25 10:39:37;;;;;;;4.45;3.10;;;28.70;49.70;;;;;;10478544;28;20064;-32
2023/06/25 10:44:39;;;;;;;3.28;2.05;;;29.20;54.60;;;;;;10491978;28;20136;-35
2023/06/25 10:49:42;;;;;;;5.88;3.42;;;29.10;55.20;;;;;;10482063;28;20127;-35
2023/06/25 10:54:44;;;;;;;5.63;3.13;;;29.50;48.00;;;;;;10475092;28;20048;-33
2023/06/25 10:59:48;;;;;;;14.30;3.63;;;29.40;48.50;;;;;;10480763;28;20664;-32
2023/06/25 11:04:53;;;;;;;5.43;4.10;;;30.90;52.60;;;;;;10481262;28;20045;-31
2023/06/25 11:09:55;;;;;;;4.28;2.90;;;30.50;46.60;;;;;;10473556;28;20040;-34
2023/06/25 11:14:57;;;;;;;4.38;3.05;;;30.40;50.70;;;;;;10479809;28;20068;-34
2023/06/25 11:20:00;;;;;;;7.43;3.40;;;29.80;46.90;;;;;;10487217;28;20147;-35
2023/06/25 11:25:07;;;;;;;5.28;2.70;;;29.70;47.10;;;;;;10484795;28;20048;-35
2023/06/25 11:30:10;;;;;;;7.10;3.55;;;29.80;46.80;;;;;;10487088;28;20045;-35
2023/06/25 11:35:14;;;;;;;4.30;2.97;;;30.00;47.00;;;;;;10486907;28;20052;-32
2023/06/25 11:40:24;;;;;;;5.05;2.80;;;30.50;46.60;;;;;;10485958;28;20045;-37
2023/06/25 11:45:25;;;;;;;6.78;3.20;;;30.90;48.50;;;;;;10482883;28;20048;-35
2023/06/25 11:50:29;;;;;;;7.35;3.60;;;30.60;45.70;;;;;;10489030;28;20125;-35
2023/06/25 11:55:30;;;;;;;6.65;3.25;;;31.20;46.70;;;;;;10490659;28;20144;-34
2023/06/25 12:00:32;;;;;;;7.57;3.08;;;31.50;45.20;;;;;;10484474;28;20040;-37
2023/06/25 12:05:36;;;;;;;5.65;2.83;;;31.60;45.70;;;;;;10494180;28;20465;-31
2023/06/25 12:10:38;;;;;;;12.90;3.60;;;31.80;48.80;;;;;;10476826;28;20068;-30
2023/06/25 12:15:40;;;;;;;4.28;2.58;;;32.60;46.50;;;;;;10485187;28;20055;-32
2023/06/25 12:20:44;;;;;;;5.45;3.28;;;32.80;48.90;;;;;;10488797;28;20152;-35
2023/06/25 12:25:45;;;;;;;3.22;2.78;;;33.30;48.10;;;;;;10492743;28;20408;-32
2023/06/25 12:30:47;;;;;;;9.02;3.85;;;33.20;48.00;;;;;;10491128;28;20472;-34
2023/06/25 12:35:50;;;;;;;4.05;3.42;;;33.00;42.80;;;;;;10493386;28;20063;-38
2023/06/25 12:40:56;;;;;;;7.38;3.72;;;32.40;42.60;;;;;;10494949;28;20101;-32
2023/06/25 12:45:58;;;;;;;5.28;3.45;;;33.10;43.60;;;;;;10492191;28;20055;-33
2023/06/25 12:51:01;;;;;;;6.25;3.05;;;33.60;48.40;;;;;;10491237;28;20538;-34
2023/06/25 12:56:03;;;;;;;3.85;3.35;;;34.10;44.30;;;;;;10494970;28;20079;-32
2023/06/25 13:01:05;;;;;;;5.15;3.83;;;33.50;44.70;;;;;;10491567;28;20064;-32
2023/06/25 13:06:08;;;;;;;7.07;3.95;;;33.70;42.50;;;;;;10492728;28;20050;-34
2023/06/25 13:11:10;;;;;;;3.47;3.10;;;34.10;42.80;;;;;;10489700;28;20465;-38
2023/06/25 13:16:12;;;;;;;5.50;4.10;;;34.30;43.00;;;;;;10491218;28;20058;-33
2023/06/25 13:21:17;;;;;;;4.88;3.70;;;34.30;43.20;;;;;;10489590;28;20064;-33
2023/06/25 13:26:19;;;;;;;5.13;3.53;;;34.90;46.10;;;;;;10490454;28;20488;-30
2023/06/25 13:31:21;;;;;;;4.93;3.40;;;35.60;43.60;;;;;;10491223;28;20532;-32
2023/06/25 13:36:24;;;;;;;5.57;3.40;;;35.40;43.10;;;;;;10490945;28;20497;-35
2023/06/25 13:41:26;;;;;;;7.18;3.40;;;36.20;44.00;;;;;;10491804;28;20507;-31
2023/06/25 13:46:28;;;;;;;4.38;2.38;;;37.00;41.60;;;;;;10483711;28;20076;-32
2023/06/25 13:51:31;;;;;;;8.85;4.00;;;36.60;46.20;;;;;;10491670;28;20041;-33
2023/06/25 13:56:33;;;;;;;2.70;2.20;;;36.70;41.80;;;;;;10489590;28;20093;-39
2023/06/25 14:01:35;;;;;;;4.10;3.15;;;36.90;45.20;;;;;;10487563;28;20119;-34
2023/06/25 14:06:38;;;;;;;9.00;4.70;;;37.50;42.20;;;;;;10489680;28;20067;-32
2023/06/25 14:11:40;;;;;;;4.07;3.38;;;37.70;41.00;;;;;;10488258;28;20083;-35
2023/06/25 14:16:44;;;;;;;7.90;4.47;;;37.80;41.20;;;;;;10488709;28;20059;-33
2023/06/25 14:21:47;;;;;;;4.05;3.45;;;38.10;39.40;;;;;;10487877;28;20083;-32
2023/06/25 14:26:49;;;;;;;5.13;2.90;;;37.30;41.20;;;;;;10488141;28;20132;-33
2023/06/25 14:31:51;;;;;;;5.20;3.55;;;37.80;43.30;;;;;;10489346;28;20076;-33
2023/06/25 14:36:54;;;;;;;8.38;3.85;;;38.30;40.30;;;;;;10489329;28;20079;-33
2023/06/25 14:41:56;;;;;;;5.70;3.25;;;37.80;40.80;;;;;;10490837;28;20040;-32
2023/06/25 14:46:58;;;;;;;6.32;3.50;;;36.90;43.60;;;;;;10488677;28;20055;-32
2023/06/25 14:52:01;;;;;;;4.47;3.00;;;37.20;42.80;;;;;;10489634;28;20147;-32
2023/06/25 14:57:03;;;;;;;6.15;3.40;;;37.70;48.60;;;;;;10486146;28;20070;-33
2023/06/25 15:02:06;;;;;;;6.70;4.10;;;38.50;46.90;;;;;;10488622;28;20127;-35
2023/06/25 15:07:09;;;;;;;8.02;4.20;;;38.00;46.20;;;;;;10483337;28;20468;-38
2023/06/25 15:12:11;;;;;;;5.18;2.90;;;38.50;40.60;;;;;;10486433;28;20576;-33
2023/06/25 15:17:13;;;;;;;6.43;3.65;;;38.50;48.60;;;;;;10482496;28;20079;-32
2023/06/25 15:22:16;;;;;;;6.78;4.30;;;39.90;42.00;;;;;;10483720;28;20049;-32
2023/06/25 15:27:18;;;;;;;8.32;4.07;;;40.10;37.70;;;;;;10485402;28;20047;-36
2023/06/25 15:32:20;;;;;;;7.00;3.80;;;40.20;38.60;;;;;;10486921;28;20485;-33
2023/06/25 15:37:23;;;;;;;8.20;3.75;;;39.70;38.90;;;;;;10484336;28;20048;-34
2023/06/25 15:42:25;;;;;;;8.95;4.53;;;40.40;39.70;;;;;;10488927;28;20102;-33
2023/06/25 15:47:26;;;;;;;4.47;2.90;;;40.20;41.50;;;;;;10487422;28;20131;-31
2023/06/25 15:52:30;;;;;;;7.30;3.80;;;39.70;46.70;;;;;;10487513;28;20044;-34
2023/06/25 15:57:31;;;;;;;5.93;3.45;;;40.10;38.60;;;;;;10486782;28;20144;-31
2023/06/25 16:02:33;;;;;;;5.45;2.90;;;39.90;39.30;;;;;;10485484;28;20148;-34
2023/06/25 16:07:36;;;;;;;7.82;4.00;;;40.50;42.50;;;;;;10486093;28;20064;-34
2023/06/25 16:12:39;;;;;;;5.68;3.42;;;39.80;38.10;;;;;;10480193;28;20057;-33
2023/06/25 16:17:41;;;;;;;9.73;3.55;;;40.80;36.80;;;;;;10476412;28;20080;-39
2023/06/25 16:22:44;;;;;;;4.05;3.42;;;41.80;39.30;;;;;;10491027;28;20494;-34
2023/06/25 16:27:46;;;;;;;18.60;7.57;;;42.50;38.30;;;;;;10492800;28;20535;-34
2023/06/25 16:32:49;;;;;;;5.43;3.55;;;42.80;36.40;;;;;;10490411;28;20052;-33
2023/06/25 16:37:52;;;;;;;51.00;40.88;;;42.90;35.90;;;;;;10490551;28;20148;-34
2023/06/25 16:42:54;;;;;;;3.97;3.15;;;43.00;34.90;;;;;;10493835;28;20045;-34
2023/06/25 16:47:56;;;;;;;6.18;5.10;;;43.70;40.10;;;;;;10489127;28;20127;-32
2023/06/25 16:52:59;;;;;;;6.05;4.07;;;42.50;37.90;;;;;;10491304;28;20121;-34
2023/06/25 16:58:02;;;;;;;3.95;2.50;;;42.00;37.00;;;;;;10488872;28;20129;-33
2023/06/25 17:03:04;;;;;;;4.97;3.67;;;42.30;51.00;;;;;;10493358;28;20075;-35
2023/06/25 17:08:08;;;;;;;4.78;4.07;;;43.20;40.40;;;;;;10491991;28;20110;-34
2023/06/25 17:13:09;;;;;;;6.00;2.83;;;43.90;35.10;;;;;;10491440;28;20076;-34
2023/06/25 17:18:12;;;;;;;3.72;2.83;;;44.60;39.40;;;;;;10492229;28;20056;-33
2023/06/25 17:23:19;;;;;;;3.83;2.58;;;42.10;48.80;;;;;;10491254;28;20052;-43
2023/06/25 17:28:20;;;;;;;3.83;2.90;;;42.50;41.40;;;;;;10491802;28;20080;-34
2023/06/25 17:33:22;;;;;;;3.65;2.42;;;41.70;37.20;;;;;;10480986;28;20143;-35
2023/06/25 17:38:25;;;;;;;2.83;2.25;;;41.70;40.70;;;;;;10487719;28;20055;-39
2023/06/25 17:43:29;;;;;;;2.92;2.35;;;40.70;52.10;;;;;;10490128;28;20044;-40
2023/06/25 17:48:31;;;;;;;2.42;2.22;;;40.60;56.00;;;;;;10477534;28;20055;-45
2023/06/25 17:53:35;;;;;;;3.33;2.45;;;40.70;54.80;;;;;;10491161;28;20079;-36
2023/06/25 17:58:37;;;;;;;3.13;2.78;;;41.00;54.50;;;;;;10486908;28;20048;-35
2023/06/25 18:03:38;;;;;;;3.42;2.38;;;40.70;43.60;;;;;;10487797;28;20099;-33
2023/06/25 18:08:42;;;;;;;3.33;2.35;;;41.20;52.10;;;;;;10489295;28;20082;-32
2023/06/25 18:13:43;;;;;;;2.55;2.35;;;41.70;54.50;;;;;;10488790;28;20087;-33
2023/06/25 18:18:47;;;;;;;2.53;2.33;;;41.80;44.50;;;;;;10488239;28;20679;-33
2023/06/25 18:23:50;;;;;;;2.80;2.50;;;41.10;54.60;;;;;;10488616;28;20132;-35
2023/06/25 18:28:52;;;;;;;2.88;2.47;;;41.30;51.20;;;;;;10489398;28;20500;-35
2023/06/25 18:33:54;;;;;;;1.88;1.75;;;41.30;47.70;;;;;;10488956;28;20538;-42
2023/06/25 18:38:57;;;;;;;4.28;1.83;;;41.00;54.00;;;;;;10485524;28;20071;-33
2023/06/25 18:43:59;;;;;;;4.95;1.98;;;41.00;55.80;;;;;;10487997;28;20131;-31
2023/06/25 18:49:01;;;;;;;2.65;1.90;;;41.30;54.80;;;;;;10486012;28;20425;-32
2023/06/25 18:54:04;;;;;;;2.10;1.90;;;42.20;55.20;;;;;;10488248;28;20106;-32
2023/06/25 18:59:06;;;;;;;1.90;1.67;;;41.30;56.30;;;;;;10488206;28;20563;-33
2023/06/25 19:04:07;;;;;;;1.52;1.42;;;40.90;57.30;;;;;;10475802;28;21505;-35
2023/06/25 19:09:11;;;;;;;3.15;2.63;;;40.80;50.70;;;;;;10488722;28;20091;-32
2023/06/25 19:14:13;;;;;;;4.22;2.70;;;40.20;44.80;;;;;;10486321;28;20072;-32
2023/06/25 19:19:15;;;;;;;2.50;2.30;;;40.20;53.90;;;;;;10481780;28;20547;-28
2023/06/25 19:24:18;;;;;;;4.53;2.92;;;38.90;48.30;;;;;;10468711;28;20076;-32
2023/06/25 19:29:20;;;;;;;4.80;2.22;;;39.00;58.20;;;;;;10478923;28;20090;-35
2023/06/25 19:34:22;;;;;;;5.55;3.38;;;38.60;57.90;;;;;;10480931;28;20048;-35
2023/06/25 19:39:25;;;;;;;2.13;1.92;;;37.10;44.80;;;;;;10486389;28;20098;-33
2023/06/25 19:44:27;;;;;;;3.00;2.63;;;37.20;63.60;;;;;;10482827;28;20094;-37
2023/06/25 19:49:29;;;;;;;7.32;2.13;;;37.00;51.50;;;;;;10484359;28;20069;-33
2023/06/25 19:54:32;;;;;;;2.83;2.35;;;36.90;63.50;;;;;;10490315;28;20191;-34
2023/06/25 19:59:34;;;;;;;1.95;1.75;;;38.30;56.70;;;;;;10491985;28;20044;-33
2023/06/25 20:04:36;;;;;;;3.97;2.25;;;38.40;60.00;;;;;;10492943;28;20402;-35
2023/06/25 20:09:40;;;;;;;3.50;1.80;;;38.70;58.00;;;;;;10493206;28;20064;-34
2023/06/25 20:14:42;;;;;;;2.28;2.08;;;38.40;58.60;;;;;;10491920;28;20122;-36
2023/06/25 20:19:44;;;;;;;1.63;1.52;;;38.20;58.10;;;;;;10492128;28;20079;-34
2023/06/25 20:24:47;;;;;;;2.28;1.50;;;38.20;57.90;;;;;;10493024;28;20127;-32
2023/06/25 20:29:49;;;;;;;4.72;2.20;;;38.00;58.80;;;;;;10492730;28;20135;-32
2023/06/25 20:34:50;;;;;;;1.48;1.35;;;38.00;58.10;;;;;;10490926;28;20044;-34
2023/06/25 20:39:54;;;;;;;2.90;1.92;;;38.10;58.50;;;;;;10492689;28;20135;-33
2023/06/25 20:44:56;;;;;;;2.80;1.40;;;37.90;57.90;;;;;;10494394;28;20090;-32
2023/06/25 20:49:57;;;;;;;3.70;1.88;;;37.70;57.60;;;;;;10491531;28;20075;-32
2023/06/25 20:55:01;;;;;;;3.05;1.90;;;37.50;57.50;;;;;;10493547;28;20052;-31
2023/06/25 21:00:04;;;;;;;1.95;1.70;;;37.20;57.10;;;;;;10492216;28;20071;-31
2023/06/25 21:05:06;;;;;;;2.28;2.08;;;36.90;56.60;;;;;;10487866;28;20580;-28
2023/06/25 21:10:10;;;;;;;5.93;2.03;;;36.70;56.30;;;;;;10489372;28;20086;-32
2023/06/25 21:15:12;;;;;;;2.97;2.15;;;36.50;56.00;;;;;;10491406;28;20548;-32
2023/06/25 21:20:14;;;;;;;2.90;1.75;;;36.40;56.00;;;;;;10493541;28;20053;-36
2023/06/25 21:25:17;;;;;;;2.85;1.98;;;36.40;56.00;;;;;;10489681;28;20041;-34
2023/06/25 21:30:19;;;;;;;2.83;2.55;;;36.40;56.20;;;;;;10491617;28;20051;-30
2023/06/25 21:35:21;;;;;;;3.58;2.92;;;35.00;50.30;;;;;;10484466;28;20044;-34
2023/06/25 21:40:24;;;;;;;6.15;2.88;;;34.20;47.70;;;;;;10491384;28;20049;-33
2023/06/25 21:45:26;;;;;;;6.40;3.53;;;33.80;51.30;;;;;;10465325;28;20143;-34
2023/06/25 21:50:28;;;;;;;2.78;2.00;;;32.40;51.00;;;;;;10488669;28;20068;-34
2023/06/25 21:55:31;;;;;;;4.07;1.75;;;33.10;59.70;;;;;;10488995;28;20067;-32
2023/06/25 22:00:33;;;;;;;4.05;2.75;;;33.60;59.70;;;;;;10489615;28;20131;-38
2023/06/25 22:05:35;;;;;;;2.63;2.20;;;34.00;52.80;;;;;;10488518;28;20151;-40
2023/06/25 22:10:38;;;;;;;3.05;2.75;;;33.30;61.10;;;;;;10486697;28;20877;-38
2023/06/25 22:15:40;;;;;;;5.13;3.03;;;33.70;58.30;;;;;;10488534;28;20084;-33
2023/06/25 22:20:42;;;;;;;4.22;2.83;;;31.50;55.90;;;;;;10487160;28;20400;-38
2023/06/25 22:25:49;;;;;;;4.03;2.00;;;31.00;61.20;;;;;;10472938;28;20101;-33
2023/06/25 22:30:51;;;;;;;2.80;2.10;;;32.60;60.50;;;;;;10483125;28;20384;-34
2023/06/25 22:35:53;;;;;;;2.95;2.33;;;33.50;58.50;;;;;;10486447;28;20071;-37
2023/06/25 22:40:56;;;;;;;2.50;2.30;;;33.80;56.30;;;;;;10488657;28;20036;-35
2023/06/25 22:45:58;;;;;;;3.38;2.15;;;34.00;54.10;;;;;;10481932;28;20169;-32
2023/06/25 22:51:00;;;;;;;2.53;2.33;;;34.30;55.50;;;;;;10488761;28;20167;-34
2023/06/25 22:56:03;;;;;;;4.18;2.60;;;34.20;55.00;;;;;;10486880;28;20063;-32
2023/06/25 23:01:09;;;;;;;2.33;1.90;;;33.90;49.70;;;;;;10488211;28;20048;-33
2023/06/25 23:06:12;;;;;;;4.68;1.88;;;34.00;55.20;;;;;;10488652;28;20051;-33
2023/06/25 23:11:15;;;;;;;3.38;2.80;;;34.10;54.30;;;;;;10488369;28;20052;-34
2023/06/25 23:16:19;;;;;;;4.10;3.47;;;31.20;58.00;;;;;;10487805;28;20058;-31
2023/06/25 23:21:21;;;;;;;3.72;2.45;;;31.10;58.10;;;;;;10487784;28;20097;-32
2023/06/25 23:26:26;;;;;;;4.72;3.15;;;31.10;60.00;;;;;;10486105;28;20114;-34
2023/06/25 23:31:27;;;;;;;7.28;3.08;;;30.60;58.70;;;;;;10493731;28;20370;-33
2023/06/25 23:36:29;;;;;;;4.68;2.97;;;30.80;59.80;;;;;;10495925;28;20611;-36
2023/06/25 23:41:32;;;;;;;5.38;3.22;;;31.20;59.80;;;;;;10497689;28;20485;-33
2023/06/25 23:46:34;;;;;;;4.60;3.05;;;30.70;58.50;;;;;;10495706;28;20052;-31
2023/06/25 23:51:36;;;;;;;3.55;2.58;;;31.00;59.00;;;;;;10495583;28;20051;-31
2023/06/25 23:56:39;;;;;;;4.90;2.80;;;31.80;56.60;;;;;;10486663;28;20040;-28
